Terminal Aerodrome Forecast
Issued by NWS Dodge City, KS

Home | Current Version | Previous Version | Text Only | Print | Product List | Glossary On
Versions: 1 2 3 4 5 6 7 8 9 10 11 12 13 14 15 16 17 18 19 20 21 22
000
FTUS43 KDDC 301720
TAFDDC
TAF
KDDC 301720Z 3018/0118 22012G18KT P6SM FEW250
     FM010100 19012KT P6SM FEW250
     FM011300 26014KT P6SM SCT110 SCT200=

USA.gov is the U.S. government's official web portal to all federal, state and local government web resources and services.